createdAt,value
2022-09-29T00:02:23.228Z,8.57
2022-09-29T00:05:27.933Z,7.75
2022-09-29T00:08:31.150Z,9.30
2022-09-29T00:11:34.351Z,8.47
2022-09-29T00:14:36.906Z,9.25
2022-09-29T00:17:46.613Z,9.30
2022-09-29T00:21:02.640Z,9.32
2022-09-29T00:24:05.650Z,9.45
2022-09-29T00:27:08.092Z,7.83
2022-09-29T00:30:12.135Z,9.23
2022-09-29T00:33:14.628Z,8.25
2022-09-29T00:36:19.293Z,9.70
2022-09-29T00:39:22.040Z,8.25
2022-09-29T00:42:25.064Z,10.60
2022-09-29T00:45:29.018Z,8.52
2022-09-29T00:48:32.798Z,8.10
2022-09-29T00:51:37.338Z,9.43
2022-09-29T00:55:04.222Z,12.55
2022-09-29T00:58:38.263Z,8.63
2022-09-29T01:01:41.091Z,9.48
2022-09-29T01:04:44.252Z,8.48
2022-09-29T01:07:48.810Z,11.90
2022-09-29T01:10:52.993Z,25.88
2022-09-29T01:13:58.705Z,18.40
2022-09-29T01:17:01.777Z,12.98
2022-09-29T01:20:13.549Z,9.23
2022-09-29T01:23:31.198Z,10.20
2022-09-29T01:26:49.425Z,10.02
2022-09-29T01:29:58.058Z,9.03
2022-09-29T01:33:10.214Z,10.13
2022-09-29T01:36:52.906Z,12.65
2022-09-29T01:40:03.983Z,11.32
2022-09-29T01:43:17.937Z,9.68
2022-09-29T01:46:24.999Z,9.83
2022-09-29T01:49:31.764Z,10.60
2022-09-29T01:52:40.931Z,9.65
2022-09-29T01:55:47.599Z,12.20
2022-09-29T01:58:57.748Z,10.45
2022-09-29T02:02:04.402Z,9.47
2022-09-29T02:05:11.007Z,11.12
2022-09-29T02:08:39.811Z,10.98
2022-09-29T02:11:43.154Z,10.40
2022-09-29T02:14:47.809Z,9.90
2022-09-29T02:17:53.146Z,9.73
2022-09-29T02:20:55.586Z,12.10
2022-09-29T02:23:58.746Z,12.07
2022-09-29T02:27:02.840Z,10.20
2022-09-29T02:30:07.901Z,9.85
2022-09-29T02:33:31.311Z,12.10
2022-09-29T02:36:42.892Z,10.18
2022-09-29T02:40:08.864Z,12.13
2022-09-29T02:43:47.647Z,9.52
2022-09-29T02:47:01.897Z,12.93
2022-09-29T02:50:19.903Z,9.63
2022-09-29T02:53:32.923Z,11.52
2022-09-29T02:56:48.213Z,14.30
2022-09-29T03:00:12.803Z,11.45
2022-09-29T03:03:17.271Z,12.88
2022-09-29T03:06:21.592Z,11.03
2022-09-29T03:09:28.573Z,10.52
2022-09-29T03:12:38.009Z,12.98
2022-09-29T03:15:40.919Z,12.75
2022-09-29T03:18:44.180Z,12.23
2022-09-29T03:21:47.175Z,11.63
2022-09-29T03:24:50.104Z,48.05
2022-09-29T03:27:53.054Z,23.10
2022-09-29T03:30:55.835Z,14.52
2022-09-29T03:33:59.084Z,21.58
2022-09-29T03:37:04.234Z,15.30
2022-09-29T03:40:08.146Z,13.25
2022-09-29T03:43:11.919Z,12.65
2022-09-29T03:46:14.833Z,13.62
2022-09-29T03:49:24.236Z,14.13
2022-09-29T03:52:28.171Z,12.57
2022-09-29T03:55:35.035Z,13.50
2022-09-29T03:58:39.653Z,14.05
2022-09-29T04:01:42.612Z,14.60
2022-09-29T04:04:49.003Z,13.32
2022-09-29T04:07:51.936Z,15.40
2022-09-29T04:10:56.324Z,14.68
2022-09-29T04:13:58.838Z,17.05
2022-09-29T04:17:04.076Z,14.70
2022-09-29T04:20:07.922Z,15.20
2022-09-29T04:23:16.253Z,17.07
2022-09-29T04:26:20.879Z,23.25
2022-09-29T04:29:23.903Z,16.65
2022-09-29T04:32:27.826Z,15.20
2022-09-29T04:35:36.094Z,13.07
2022-09-29T04:38:50.766Z,15.73
2022-09-29T04:41:54.634Z,15.48
2022-09-29T04:44:58.627Z,15.50
2022-09-29T04:48:02.453Z,16.92
2022-09-29T04:51:10.812Z,14.98
2022-09-29T04:54:14.435Z,16.60
2022-09-29T04:57:17.219Z,16.02
2022-09-29T05:00:21.878Z,16.48
2022-09-29T05:03:26.057Z,16.42
2022-09-29T05:06:29.893Z,15.52
2022-09-29T05:09:34.452Z,19.10
2022-09-29T05:12:39.904Z,18.65
2022-09-29T05:15:43.874Z,20.25
2022-09-29T05:18:48.870Z,16.75
2022-09-29T05:21:52.549Z,19.23
2022-09-29T05:24:59.656Z,20.00
2022-09-29T05:28:06.272Z,18.08
2022-09-29T05:31:09.803Z,16.45
2022-09-29T05:34:13.889Z,19.20
2022-09-29T05:37:18.897Z,19.95
2022-09-29T05:40:27.824Z,18.93
2022-09-29T05:43:31.509Z,21.87
2022-09-29T05:46:42.733Z,22.35
2022-09-29T05:49:53.388Z,21.65
2022-09-29T05:53:04.274Z,22.15
2022-09-29T05:56:19.960Z,21.00
2022-09-29T05:59:22.902Z,23.33
2022-09-29T06:02:27.128Z,20.23
2022-09-29T06:05:33.155Z,19.23
2022-09-29T06:08:45.913Z,18.50
2022-09-29T06:11:49.841Z,19.60
2022-09-29T06:14:55.366Z,20.10
2022-09-29T06:18:01.825Z,17.90
2022-09-29T06:21:06.973Z,22.83
2022-09-29T06:24:11.535Z,17.15
2022-09-29T06:27:17.819Z,18.03
2022-09-29T06:30:20.744Z,18.58
2022-09-29T06:33:24.280Z,17.45
2022-09-29T06:36:50.609Z,15.93
2022-09-29T06:39:54.021Z,15.90
2022-09-29T06:42:57.887Z,15.43
2022-09-29T06:46:07.962Z,16.62
2022-09-29T06:49:13.874Z,16.15
2022-09-29T06:52:21.025Z,12.23
2022-09-29T06:55:25.587Z,14.13
2022-09-29T06:58:29.397Z,11.93
2022-09-29T07:01:35.194Z,12.82
2022-09-29T07:04:38.308Z,12.35
2022-09-29T07:07:42.202Z,10.95
2022-09-29T07:10:48.433Z,10.93
2022-09-29T07:13:54.443Z,9.40
2022-09-29T07:16:59.273Z,10.10
2022-09-29T07:20:05.878Z,11.20
2022-09-29T07:23:09.239Z,8.95
2022-09-29T07:26:14.045Z,13.52
2022-09-29T07:29:18.090Z,10.37
2022-09-29T07:32:27.658Z,6.37
2022-09-29T07:35:31.196Z,4.70
2022-09-29T07:38:34.901Z,5.50
2022-09-29T07:41:38.084Z,6.18
2022-09-29T07:44:42.105Z,4.70
2022-09-29T07:47:52.018Z,4.32
2022-09-29T07:51:04.033Z,4.20
2022-09-29T07:54:10.015Z,4.30
2022-09-29T07:57:15.974Z,4.25
2022-09-29T08:00:19.594Z,4.93
2022-09-29T08:03:33.794Z,5.75
2022-09-29T08:06:37.990Z,4.95
2022-09-29T08:09:41.594Z,4.35
2022-09-29T08:12:46.064Z,4.57
2022-09-29T08:15:49.366Z,4.60
2022-09-29T08:18:52.343Z,5.10
2022-09-29T08:21:59.278Z,3.47
2022-09-29T08:25:09.497Z,4.00
2022-09-29T08:28:29.160Z,4.82
2022-09-29T08:31:34.793Z,4.10
2022-09-29T08:34:38.267Z,4.07
2022-09-29T08:37:43.177Z,4.53
2022-09-29T08:40:46.319Z,3.90
2022-09-29T08:43:52.547Z,3.75
2022-09-29T08:47:09.951Z,4.33
2022-09-29T08:50:29.879Z,4.47
2022-09-29T08:53:37.310Z,4.18
2022-09-29T08:56:39.931Z,4.93
2022-09-29T08:59:44.974Z,4.22
2022-09-29T09:02:57.245Z,4.93
2022-09-29T09:09:34.214Z,3.62
2022-09-29T09:12:59.133Z,3.97
2022-09-29T09:16:17.148Z,4.20
2022-09-29T09:19:38.387Z,4.23
2022-09-29T09:22:47.926Z,3.30
2022-09-29T09:25:55.587Z,3.65
2022-09-29T09:29:04.840Z,2.87
2022-09-29T09:32:21.803Z,3.37
2022-09-29T09:35:37.930Z,3.20
2022-09-29T09:39:14.984Z,3.05
2022-09-29T09:42:25.192Z,3.47
2022-09-29T09:45:42.713Z,2.87
2022-09-29T09:48:54.116Z,2.90
2022-09-29T09:52:04.990Z,2.77
2022-09-29T09:55:16.858Z,3.95
2022-09-29T09:58:32.034Z,2.78
2022-09-29T10:01:39.022Z,2.60
2022-09-29T10:04:43.053Z,3.12
2022-09-29T10:07:48.835Z,3.27
2022-09-29T10:10:58.996Z,3.10
2022-09-29T10:14:06.584Z,2.58
2022-09-29T10:17:17.998Z,3.00
2022-09-29T10:20:32.669Z,3.70
2022-09-29T10:23:36.837Z,2.70
2022-09-29T10:26:45.694Z,3.40
2022-09-29T10:29:50.927Z,4.65
2022-09-29T10:33:00.210Z,3.45
2022-09-29T10:36:10.470Z,3.45
2022-09-29T10:39:41.020Z,3.20
2022-09-29T10:42:47.049Z,2.65
2022-09-29T10:45:50.786Z,2.50
2022-09-29T10:49:14.842Z,3.08
2022-09-29T10:52:28.990Z,2.78
2022-09-29T10:55:35.860Z,2.90
2022-09-29T10:58:52.595Z,6.47
2022-09-29T11:02:11.985Z,3.55
2022-09-29T11:05:27.897Z,2.35
2022-09-29T11:08:31.849Z,2.67
2022-09-29T11:11:59.934Z,3.03
2022-09-29T11:15:23.662Z,2.37
2022-09-29T11:18:33.931Z,2.62
2022-09-29T11:21:42.980Z,2.37
2022-09-29T11:25:06.126Z,2.95
2022-09-29T11:28:30.548Z,2.57
2022-09-29T11:31:59.371Z,3.28
2022-09-29T11:35:14.288Z,3.75
2022-09-29T11:38:35.859Z,2.78
2022-09-29T11:42:00.766Z,3.40
2022-09-29T11:45:08.517Z,3.77
2022-09-29T11:48:40.045Z,3.80
2022-09-29T11:52:09.012Z,2.97
2022-09-29T11:55:42.882Z,3.40
2022-09-29T11:59:30.818Z,3.20
2022-09-29T12:03:05.603Z,3.33
2022-09-29T12:06:34.904Z,4.00
2022-09-29T12:09:47.406Z,3.47
2022-09-29T12:13:33.873Z,4.55
2022-09-29T12:16:58.026Z,3.00
2022-09-29T12:20:25.089Z,3.87
2022-09-29T12:23:30.176Z,3.50
2022-09-29T12:26:33.835Z,3.60
2022-09-29T12:29:58.874Z,4.00
2022-09-29T12:33:24.220Z,3.55
2022-09-29T12:37:21.264Z,4.07
2022-09-29T12:40:33.808Z,5.12
2022-09-29T12:43:50.006Z,4.20
2022-09-29T12:47:21.880Z,4.18
2022-09-29T12:50:31.825Z,5.00
2022-09-29T12:53:39.091Z,3.83
2022-09-29T12:57:15.352Z,3.58
2022-09-29T13:00:25.081Z,3.83
2022-09-29T13:03:54.429Z,4.55
2022-09-29T13:07:25.840Z,3.85
2022-09-29T13:10:48.476Z,2.93
2022-09-29T13:13:56.583Z,5.22
2022-09-29T13:17:28.920Z,5.35
2022-09-29T13:20:43.902Z,4.45
2022-09-29T13:24:12.270Z,4.12
2022-09-29T13:27:46.024Z,3.73
2022-09-29T13:30:52.030Z,3.90
2022-09-29T13:33:58.124Z,3.50
2022-09-29T13:37:13.440Z,3.62
2022-09-29T13:40:28.454Z,3.20
2022-09-29T13:43:51.291Z,3.43
2022-09-29T13:47:03.784Z,4.53
2022-09-29T13:50:52.793Z,3.30
2022-09-29T13:54:48.933Z,4.45
2022-09-29T13:58:01.219Z,3.87
2022-09-29T14:01:10.929Z,3.33
2022-09-29T14:04:44.630Z,3.10
2022-09-29T14:07:51.265Z,3.95
2022-09-29T14:11:11.920Z,3.42
2022-09-29T14:14:28.201Z,4.00
2022-09-29T14:17:44.915Z,3.30
2022-09-29T14:21:01.095Z,3.95
2022-09-29T14:24:05.863Z,6.47
2022-09-29T14:27:35.909Z,4.40
2022-09-29T14:30:47.201Z,5.25
2022-09-29T14:34:06.066Z,5.03
2022-09-29T14:37:25.459Z,4.62
2022-09-29T14:40:28.611Z,5.03
2022-09-29T14:43:42.891Z,5.43
2022-09-29T14:47:46.239Z,5.40
2022-09-29T14:51:27.916Z,5.67
2022-09-29T14:54:49.897Z,4.50
2022-09-29T14:58:06.023Z,3.87
2022-09-29T15:01:30.125Z,3.60
2022-09-29T15:04:39.890Z,3.70
2022-09-29T15:07:46.902Z,6.90
2022-09-29T15:10:51.914Z,6.22
2022-09-29T15:13:56.877Z,5.37
2022-09-29T15:17:40.064Z,6.15
2022-09-29T15:20:55.194Z,5.07
2022-09-29T15:24:15.880Z,4.30
2022-09-29T15:27:27.897Z,4.68
2022-09-29T15:30:35.936Z,4.18
2022-09-29T15:33:44.174Z,4.12
2022-09-29T15:37:02.787Z,6.32
2022-09-29T15:40:06.782Z,5.13
2022-09-29T15:43:43.037Z,7.65
2022-09-29T15:46:58.896Z,15.02
2022-09-29T15:50:33.829Z,28.52
2022-09-29T15:53:44.951Z,53.08
2022-09-29T15:57:07.851Z,18.37
2022-09-29T16:00:29.983Z,10.35
2022-09-29T16:03:50.833Z,6.62
2022-09-29T16:07:08.413Z,5.12
2022-09-29T16:10:31.937Z,7.18
2022-09-29T16:13:46.808Z,5.90
2022-09-29T16:16:57.369Z,8.45
2022-09-29T16:20:21.985Z,8.88
2022-09-29T16:23:45.936Z,8.68
2022-09-29T16:26:55.183Z,6.50
2022-09-29T16:30:19.872Z,8.53
2022-09-29T16:33:24.534Z,6.80
2022-09-29T16:36:39.169Z,7.00
2022-09-29T16:39:48.081Z,7.12
2022-09-29T16:42:59.132Z,7.40
2022-09-29T16:46:13.891Z,8.20
2022-09-29T16:49:20.335Z,9.20
2022-09-29T16:52:45.340Z,12.90
2022-09-29T16:56:32.928Z,11.88
2022-09-29T16:59:37.876Z,18.25
2022-09-29T17:02:49.029Z,13.25
2022-09-29T17:05:57.880Z,17.15
2022-09-29T17:09:05.350Z,24.60
2022-09-29T17:12:17.048Z,54.35
2022-09-29T17:15:30.570Z,49.72
2022-09-29T17:18:38.971Z,53.05
2022-09-29T17:21:49.071Z,51.22
2022-09-29T17:24:52.662Z,43.43
2022-09-29T17:28:12.504Z,46.58
2022-09-29T17:31:20.590Z,44.47
2022-09-29T17:34:29.704Z,40.80
2022-09-29T17:37:36.414Z,46.80
2022-09-29T17:40:54.917Z,43.73
2022-09-29T17:44:01.922Z,42.75
2022-09-29T17:47:28.534Z,37.35
2022-09-29T17:50:38.904Z,42.38
2022-09-29T17:53:47.849Z,41.50
2022-09-29T17:57:01.514Z,41.77
2022-09-29T18:00:21.958Z,51.47
2022-09-29T18:03:44.796Z,75.97
2022-09-29T18:06:57.072Z,76.20
2022-09-29T18:10:01.386Z,74.50
2022-09-29T18:13:08.140Z,72.57
2022-09-29T18:16:18.272Z,63.92
2022-09-29T18:19:21.497Z,57.92
2022-09-29T18:22:25.891Z,47.50
2022-09-29T18:25:35.076Z,48.05
2022-09-29T18:28:40.623Z,47.60
2022-09-29T18:31:44.899Z,45.10
2022-09-29T18:34:50.123Z,44.88
2022-09-29T18:37:56.352Z,45.60
2022-09-29T18:41:20.291Z,50.25
2022-09-29T18:44:38.923Z,44.33
2022-09-29T18:47:45.100Z,45.95
2022-09-29T18:50:56.895Z,46.28
2022-09-29T18:54:02.201Z,45.65
2022-09-29T18:57:16.889Z,41.78
2022-09-29T19:00:34.905Z,48.67
2022-09-29T19:03:39.663Z,43.83
2022-09-29T19:06:43.314Z,45.63
2022-09-29T19:09:50.969Z,51.70
2022-09-29T19:12:59.067Z,47.47
2022-09-29T19:16:11.911Z,45.90
2022-09-29T19:19:17.979Z,51.80
2022-09-29T19:22:28.972Z,60.05
2022-09-29T19:25:40.247Z,48.50
2022-09-29T19:28:56.820Z,50.88
2022-09-29T19:32:00.888Z,55.67
2022-09-29T19:35:08.976Z,50.45
2022-09-29T19:38:12.658Z,52.53
2022-09-29T19:41:20.371Z,53.78
2022-09-29T19:44:37.888Z,62.83
2022-09-29T19:47:47.062Z,70.10
2022-09-29T19:51:17.161Z,79.80
2022-09-29T19:54:31.899Z,66.75
2022-09-29T19:57:42.586Z,63.33
2022-09-29T20:00:50.022Z,70.97
2022-09-29T20:03:53.277Z,76.77
2022-09-29T20:06:58.090Z,83.07
2022-09-29T20:10:05.859Z,124.35
2022-09-29T20:13:14.863Z,130.05
2022-09-29T20:16:18.877Z,117.40
2022-09-29T20:19:25.144Z,99.10
2022-09-29T20:22:31.852Z,64.75
2022-09-29T20:25:35.107Z,85.55
2022-09-29T20:28:40.237Z,93.90
2022-09-29T20:31:51.831Z,74.62
2022-09-29T20:35:02.812Z,63.97
2022-09-29T20:38:07.373Z,61.58
2022-09-29T20:41:10.957Z,58.87
2022-09-29T20:44:15.845Z,53.60
2022-09-29T20:47:22.131Z,48.13
2022-09-29T20:50:27.975Z,49.83
2022-09-29T20:53:34.235Z,49.97
2022-09-29T20:56:44.280Z,50.97
2022-09-29T20:59:47.440Z,49.63
2022-09-29T21:02:50.516Z,47.62
2022-09-29T21:05:56.841Z,49.43
2022-09-29T21:09:04.993Z,46.28
2022-09-29T21:12:16.307Z,46.88
2022-09-29T21:15:20.923Z,45.78
2022-09-29T21:18:25.016Z,38.08
2022-09-29T21:21:27.784Z,37.27
2022-09-29T21:24:31.899Z,42.88
2022-09-29T21:27:40.835Z,44.83
2022-09-29T21:30:44.888Z,40.92
2022-09-29T21:33:55.119Z,32.03
2022-09-29T21:37:02.442Z,31.60
2022-09-29T21:40:05.947Z,32.00
2022-09-29T21:43:10.883Z,26.35
2022-09-29T21:46:16.179Z,29.98
2022-09-29T21:49:21.238Z,27.02
2022-09-29T21:52:24.890Z,28.23
2022-09-29T21:55:28.472Z,31.58
2022-09-29T21:58:31.502Z,29.67
2022-09-29T22:01:34.886Z,31.15
2022-09-29T22:04:37.839Z,31.45
2022-09-29T22:07:41.140Z,26.77
2022-09-29T22:10:47.821Z,30.95
2022-09-29T22:13:59.051Z,31.85
2022-09-29T22:17:02.127Z,27.90
2022-09-29T22:20:05.401Z,27.48
2022-09-29T22:23:08.198Z,29.00
2022-09-29T22:26:13.999Z,29.55
2022-09-29T22:29:17.084Z,28.73
2022-09-29T22:32:19.978Z,28.70
2022-09-29T22:35:22.745Z,28.40
2022-09-29T22:38:25.755Z,27.40
2022-09-29T22:41:29.237Z,30.83
2022-09-29T22:44:32.852Z,24.85
2022-09-29T22:47:37.169Z,31.52
2022-09-29T22:50:43.726Z,26.30
2022-09-29T22:53:47.009Z,26.80
2022-09-29T22:56:49.654Z,32.00
2022-09-29T22:59:53.160Z,25.90
2022-09-29T23:02:56.101Z,24.98
2022-09-29T23:06:00.047Z,25.27
2022-09-29T23:09:02.917Z,27.80
2022-09-29T23:12:08.027Z,27.40
2022-09-29T23:15:12.000Z,26.70
2022-09-29T23:18:15.009Z,25.25
2022-09-29T23:21:21.381Z,22.10
2022-09-29T23:24:24.689Z,23.53
2022-09-29T23:27:30.099Z,23.23
2022-09-29T23:30:36.327Z,24.17
2022-09-29T23:33:38.968Z,24.12
2022-09-29T23:36:42.198Z,22.98
2022-09-29T23:39:46.367Z,19.53
2022-09-29T23:42:51.575Z,18.15
2022-09-29T23:45:56.290Z,15.35
2022-09-29T23:49:02.883Z,15.77
2022-09-29T23:52:06.100Z,17.75
2022-09-29T23:55:10.765Z,18.80
2022-09-29T23:58:15.143Z,15.60
